createdAt,value
2022-10-12T00:00:59.067Z,1.88
2022-10-12T00:03:27.330Z,2.10
2022-10-12T00:06:05.595Z,2.35
2022-10-12T00:08:35.722Z,2.38
2022-10-12T00:11:04.064Z,2.70
2022-10-12T00:13:32.288Z,2.05
2022-10-12T00:16:04.014Z,2.50
2022-10-12T00:18:32.313Z,1.70
2022-10-12T00:21:04.020Z,1.90
2022-10-12T00:23:32.574Z,1.65
2022-10-12T00:26:04.546Z,4.18
2022-10-12T00:28:32.893Z,2.38
2022-10-12T00:31:01.191Z,2.28
2022-10-12T00:33:29.540Z,2.72
2022-10-12T00:35:57.864Z,1.83
2022-10-12T00:38:26.210Z,2.63
2022-10-12T00:40:54.523Z,2.90
2022-10-12T00:43:36.066Z,2.53
2022-10-12T00:46:05.676Z,2.50
2022-10-12T00:48:33.981Z,2.08
2022-10-12T00:51:03.276Z,2.65
2022-10-12T00:53:36.214Z,2.20
2022-10-12T00:56:06.403Z,2.25
2022-10-12T00:58:36.124Z,2.95
2022-10-12T01:01:04.927Z,1.88
2022-10-12T01:03:33.419Z,2.83
2022-10-12T01:06:02.109Z,2.25
2022-10-12T01:08:30.681Z,3.03
2022-10-12T01:10:58.951Z,2.25
2022-10-12T01:13:27.406Z,3.45
2022-10-12T01:16:00.152Z,3.78
2022-10-12T01:18:31.233Z,2.92
2022-10-12T01:21:03.725Z,2.85
2022-10-12T01:23:50.280Z,2.03
2022-10-12T01:26:27.824Z,2.00
2022-10-12T01:29:00.080Z,4.03
2022-10-12T01:31:32.973Z,2.40
2022-10-12T01:34:02.734Z,2.33
2022-10-12T01:36:35.261Z,2.10
2022-10-12T01:39:09.627Z,3.95
2022-10-12T01:41:39.062Z,2.53
2022-10-12T01:44:07.513Z,2.67
2022-10-12T01:46:45.843Z,2.60
2022-10-12T01:49:15.844Z,2.45
2022-10-12T01:51:55.078Z,2.28
2022-10-12T01:54:28.502Z,3.38
2022-10-12T01:56:59.441Z,2.63
2022-10-12T01:59:33.441Z,2.85
2022-10-12T02:02:05.898Z,2.63
2022-10-12T02:04:36.249Z,2.55
2022-10-12T02:07:06.889Z,2.40
2022-10-12T02:09:36.494Z,3.10
2022-10-12T02:12:06.721Z,1.95
2022-10-12T02:14:37.266Z,1.88
2022-10-12T02:17:07.132Z,2.88
2022-10-12T02:19:38.427Z,3.28
2022-10-12T02:22:07.745Z,2.70
2022-10-12T02:24:37.709Z,2.70
2022-10-12T02:27:07.040Z,2.70
2022-10-12T02:29:38.374Z,2.17
2022-10-12T02:32:10.779Z,2.35
2022-10-12T02:34:40.029Z,3.15
2022-10-12T02:37:10.688Z,3.13
2022-10-12T02:39:40.622Z,3.20
2022-10-12T02:42:11.775Z,3.42
2022-10-12T02:44:41.544Z,4.38
2022-10-12T02:47:11.918Z,2.70
2022-10-12T02:49:41.927Z,3.75
2022-10-12T02:52:10.339Z,3.42
2022-10-12T02:54:38.578Z,2.58
2022-10-12T02:57:06.820Z,3.22
2022-10-12T02:59:35.287Z,4.15
2022-10-12T03:02:03.520Z,4.57
2022-10-12T03:04:33.084Z,3.67
2022-10-12T03:07:01.364Z,3.55
2022-10-12T03:09:29.620Z,3.40
2022-10-12T03:11:57.868Z,3.22
2022-10-12T03:14:27.301Z,3.42
2022-10-12T03:16:55.571Z,3.08
2022-10-12T03:19:23.789Z,3.95
2022-10-12T03:21:53.420Z,3.63
2022-10-12T03:24:21.712Z,3.58
2022-10-12T03:26:49.931Z,2.78
2022-10-12T03:29:18.190Z,4.38
2022-10-12T03:31:46.461Z,3.30
2022-10-12T03:34:14.703Z,3.13
2022-10-12T03:36:42.979Z,3.58
2022-10-12T03:39:12.600Z,4.20
2022-10-12T03:41:40.876Z,4.22
2022-10-12T03:44:09.100Z,4.00
2022-10-12T03:46:37.350Z,3.13
2022-10-12T03:49:05.746Z,3.50
2022-10-12T03:51:34.082Z,4.00
2022-10-12T03:54:02.315Z,3.05
2022-10-12T03:56:31.889Z,4.32
2022-10-12T03:59:00.263Z,3.20
2022-10-12T04:01:28.628Z,4.47
2022-10-12T04:03:56.888Z,3.22
2022-10-12T04:06:25.211Z,4.40
2022-10-12T04:08:53.440Z,3.15
2022-10-12T04:11:21.951Z,3.15
2022-10-12T04:13:51.593Z,3.53
2022-10-12T04:16:19.913Z,3.88
2022-10-12T04:18:48.163Z,4.97
2022-10-12T04:21:17.572Z,3.58
2022-10-12T04:23:45.837Z,3.42
2022-10-12T04:26:14.041Z,4.25
2022-10-12T04:28:42.381Z,3.83
2022-10-12T04:31:12.004Z,3.83
2022-10-12T04:33:40.263Z,4.18
2022-10-12T04:36:09.016Z,3.85
2022-10-12T04:38:37.269Z,3.67
2022-10-12T04:41:05.734Z,2.90
2022-10-12T04:43:34.016Z,2.90
2022-10-12T04:46:02.353Z,3.70
2022-10-12T04:48:32.054Z,3.40
2022-10-12T04:51:00.400Z,4.63
2022-10-12T04:53:28.703Z,3.22
2022-10-12T04:55:56.953Z,3.88
2022-10-12T04:58:25.273Z,3.40
2022-10-12T05:00:53.477Z,4.18
2022-10-12T05:03:21.771Z,4.55
2022-10-12T05:05:55.157Z,3.35
2022-10-12T05:08:23.415Z,3.25
2022-10-12T05:10:51.678Z,3.05
2022-10-12T05:13:19.985Z,4.22
2022-10-12T05:15:48.251Z,3.20
2022-10-12T05:18:16.602Z,4.15
2022-10-12T05:20:45.368Z,3.72
2022-10-12T05:23:15.002Z,3.10
2022-10-12T05:25:43.221Z,3.42
2022-10-12T05:28:11.851Z,3.33
2022-10-12T05:30:40.846Z,3.15
2022-10-12T05:33:09.112Z,2.95
2022-10-12T05:35:37.368Z,3.63
2022-10-12T05:38:05.610Z,3.83
2022-10-12T05:40:35.257Z,3.72
2022-10-12T05:43:03.519Z,4.32
2022-10-12T05:45:31.829Z,5.53
2022-10-12T05:48:00.113Z,4.13
2022-10-12T05:50:28.429Z,3.90
2022-10-12T05:52:56.650Z,5.18
2022-10-12T05:55:24.954Z,5.18
2022-10-12T05:57:54.561Z,4.72
2022-10-12T06:00:22.868Z,4.18
2022-10-12T06:02:51.916Z,4.38
2022-10-12T06:05:20.196Z,3.10
2022-10-12T06:07:48.458Z,4.32
2022-10-12T06:10:16.893Z,5.13
2022-10-12T06:12:45.154Z,4.38
2022-10-12T06:15:14.867Z,4.53
2022-10-12T06:17:43.238Z,3.22
2022-10-12T06:20:12.626Z,4.55
2022-10-12T06:22:41.111Z,4.00
2022-10-12T06:25:10.001Z,4.00
2022-10-12T06:27:38.274Z,5.55
2022-10-12T06:30:07.356Z,4.63
2022-10-12T06:32:37.349Z,4.95
2022-10-12T06:35:06.663Z,5.50
2022-10-12T06:37:49.539Z,3.85
2022-10-12T06:40:18.901Z,3.35
2022-10-12T06:42:47.195Z,4.50
2022-10-12T06:45:15.729Z,3.90
2022-10-12T06:47:45.716Z,3.67
2022-10-12T06:50:14.326Z,4.75
2022-10-12T06:52:43.570Z,3.60
2022-10-12T06:55:12.564Z,4.68
2022-10-12T06:57:41.048Z,4.72
2022-10-12T07:00:10.150Z,4.75
2022-10-12T07:02:38.748Z,4.07
2022-10-12T07:05:09.579Z,3.97
2022-10-12T07:07:38.932Z,5.22
2022-10-12T07:10:08.840Z,4.22
2022-10-12T07:12:38.315Z,4.43
2022-10-12T07:15:07.877Z,5.53
2022-10-12T07:17:36.834Z,4.28
2022-10-12T07:20:06.105Z,4.72
2022-10-12T07:22:36.391Z,3.70
2022-10-12T07:25:05.260Z,3.50
2022-10-12T07:27:34.221Z,3.10
2022-10-12T07:30:02.996Z,4.82
2022-10-12T07:32:31.613Z,3.80
2022-10-12T07:34:59.933Z,4.32
2022-10-12T07:37:28.520Z,3.22
2022-10-12T07:39:58.269Z,2.97
2022-10-12T07:42:26.658Z,4.55
2022-10-12T07:44:55.051Z,4.85
2022-10-12T07:47:23.398Z,4.57
2022-10-12T07:49:51.777Z,4.32
2022-10-12T07:52:20.073Z,4.78
2022-10-12T07:54:48.484Z,4.32
2022-10-12T07:57:18.318Z,4.88
2022-10-12T07:59:46.912Z,3.95
2022-10-12T08:02:15.301Z,3.67
2022-10-12T08:04:43.696Z,3.38
2022-10-12T08:07:12.369Z,3.75
2022-10-12T08:09:41.045Z,3.75
2022-10-12T08:12:09.586Z,4.07
2022-10-12T08:14:39.444Z,5.07
2022-10-12T08:17:08.206Z,5.25
2022-10-12T08:19:37.849Z,4.47
2022-10-12T08:22:06.772Z,3.22
2022-10-12T08:24:37.031Z,3.47
2022-10-12T08:27:05.830Z,2.40
2022-10-12T08:29:34.181Z,3.00
2022-10-12T08:32:04.160Z,4.53
2022-10-12T08:34:32.580Z,3.90
2022-10-12T08:37:00.986Z,4.10
2022-10-12T08:39:29.305Z,4.13
2022-10-12T08:42:02.880Z,2.88
2022-10-12T08:44:55.493Z,3.47
2022-10-12T08:47:29.121Z,2.97
2022-10-12T08:49:57.618Z,3.10
2022-10-12T08:52:30.590Z,2.72
2022-10-12T08:55:02.151Z,3.22
2022-10-12T08:57:30.496Z,3.00
2022-10-12T09:00:01.589Z,3.15
2022-10-12T09:02:40.250Z,2.92
2022-10-12T09:05:10.282Z,4.00
2022-10-12T09:07:40.385Z,3.15
2022-10-12T09:10:14.918Z,3.50
2022-10-12T09:12:47.831Z,2.67
2022-10-12T09:15:18.249Z,3.92
2022-10-12T09:17:49.544Z,3.88
2022-10-12T09:20:20.082Z,3.33
2022-10-12T09:22:50.190Z,2.65
2022-10-12T09:25:19.428Z,3.25
2022-10-12T09:27:48.701Z,3.47
2022-10-12T09:30:17.892Z,3.78
2022-10-12T09:32:57.117Z,2.47
2022-10-12T09:35:26.016Z,3.38
2022-10-12T09:37:55.377Z,3.50
2022-10-12T09:40:25.395Z,2.17
2022-10-12T09:42:54.344Z,2.78
2022-10-12T09:45:23.627Z,3.00
2022-10-12T09:48:12.864Z,3.65
2022-10-12T09:50:43.766Z,3.25
2022-10-12T09:53:16.964Z,4.68
2022-10-12T09:55:54.031Z,3.85
2022-10-12T09:58:23.105Z,3.50
2022-10-12T10:01:06.780Z,3.13
2022-10-12T10:03:35.424Z,3.55
2022-10-12T10:06:06.576Z,3.58
2022-10-12T10:08:41.420Z,3.00
2022-10-12T10:11:16.021Z,3.80
2022-10-12T10:13:49.071Z,1.75
2022-10-12T10:16:17.999Z,2.90
2022-10-12T10:18:49.350Z,2.50
2022-10-12T10:21:26.154Z,3.45
2022-10-12T10:23:55.891Z,3.90
2022-10-12T10:26:25.491Z,3.13
2022-10-12T10:28:57.757Z,2.30
2022-10-12T10:31:27.752Z,2.28
2022-10-12T10:34:11.587Z,2.80
2022-10-12T10:36:42.631Z,2.85
2022-10-12T10:39:18.335Z,1.95
2022-10-12T10:41:46.655Z,2.30
2022-10-12T10:44:22.597Z,2.40
2022-10-12T10:46:51.123Z,1.83
2022-10-12T10:49:25.297Z,3.35
2022-10-12T10:51:56.964Z,2.33
2022-10-12T10:54:29.852Z,2.70
2022-10-12T10:57:03.191Z,2.55
2022-10-12T10:59:37.158Z,2.42
2022-10-12T11:02:10.430Z,2.15
2022-10-12T11:04:41.266Z,3.35
2022-10-12T11:07:16.864Z,2.55
2022-10-12T11:09:46.291Z,2.45
2022-10-12T11:12:16.864Z,2.17
2022-10-12T11:14:46.350Z,4.10
2022-10-12T11:17:16.055Z,2.55
2022-10-12T11:19:50.061Z,1.92
2022-10-12T11:22:21.945Z,2.80
2022-10-12T11:24:53.797Z,3.22
2022-10-12T11:27:23.832Z,2.63
2022-10-12T11:30:02.970Z,2.00
2022-10-12T11:32:38.605Z,2.30
2022-10-12T11:35:07.946Z,1.65
2022-10-12T11:37:40.370Z,2.67
2022-10-12T11:40:10.851Z,3.03
2022-10-12T11:42:43.661Z,2.90
2022-10-12T11:45:19.252Z,2.55
2022-10-12T11:47:49.248Z,3.00
2022-10-12T11:50:22.729Z,2.95
2022-10-12T11:52:53.672Z,2.35
2022-10-12T11:55:36.924Z,2.10
2022-10-12T11:58:13.265Z,2.30
2022-10-12T12:00:47.017Z,2.45
2022-10-12T12:03:20.219Z,2.35
2022-10-12T12:05:48.789Z,2.47
2022-10-12T12:08:25.013Z,2.15
2022-10-12T12:11:05.507Z,2.88
2022-10-12T12:13:33.962Z,2.42
2022-10-12T12:16:29.462Z,2.28
2022-10-12T12:19:17.564Z,2.33
2022-10-12T12:22:04.724Z,2.38
2022-10-12T12:24:34.956Z,3.08
2022-10-12T12:27:03.532Z,3.03
2022-10-12T12:29:32.003Z,2.58
2022-10-12T12:32:01.132Z,1.98
2022-10-12T12:34:29.872Z,2.22
2022-10-12T12:36:58.566Z,1.80
2022-10-12T12:39:30.472Z,3.55
2022-10-12T12:42:02.486Z,2.53
2022-10-12T12:44:40.478Z,2.45
2022-10-12T12:47:44.530Z,2.58
2022-10-12T12:50:27.254Z,2.50
2022-10-12T12:52:59.643Z,2.88
2022-10-12T12:55:37.950Z,2.28
2022-10-12T12:58:11.986Z,2.65
2022-10-12T13:03:43.563Z,2.17
2022-10-12T13:06:26.876Z,2.63
2022-10-12T13:09:11.804Z,2.67
2022-10-12T13:11:48.398Z,2.35
2022-10-12T13:14:34.488Z,2.60
2022-10-12T13:20:17.586Z,2.67
2022-10-12T13:22:46.981Z,1.98
2022-10-12T13:25:17.475Z,2.70
2022-10-12T13:27:48.696Z,2.00
2022-10-12T13:30:30.421Z,2.88
2022-10-12T13:33:04.041Z,2.63
2022-10-12T13:35:35.365Z,2.03
2022-10-12T13:38:05.314Z,2.70
2022-10-12T13:40:34.750Z,1.95
2022-10-12T13:43:18.044Z,1.75
2022-10-12T13:45:46.835Z,2.10
2022-10-12T13:48:33.979Z,2.00
2022-10-12T13:51:21.099Z,2.60
2022-10-12T13:53:49.395Z,2.53
2022-10-12T13:56:19.828Z,2.50
2022-10-12T13:58:48.389Z,2.53
2022-10-12T14:01:16.857Z,2.75
2022-10-12T14:03:46.780Z,3.45
2022-10-12T14:06:29.180Z,2.20
2022-10-12T14:08:59.078Z,1.90
2022-10-12T14:11:28.311Z,2.78
2022-10-12T14:13:57.354Z,2.42
2022-10-12T14:16:25.829Z,2.30
2022-10-12T14:18:55.584Z,2.85
2022-10-12T14:21:25.675Z,2.92
2022-10-12T14:23:55.108Z,1.67
2022-10-12T14:26:31.198Z,2.30
2022-10-12T14:29:00.497Z,2.05
2022-10-12T14:31:47.376Z,2.38
2022-10-12T14:34:37.490Z,2.53
2022-10-12T14:37:07.427Z,2.22
2022-10-12T14:39:35.798Z,3.42
2022-10-12T14:42:05.635Z,2.97
2022-10-12T14:44:43.903Z,1.90
2022-10-12T14:47:17.171Z,3.00
2022-10-12T14:49:47.704Z,2.97
2022-10-12T14:52:19.723Z,3.20
2022-10-12T14:54:51.338Z,2.47
2022-10-12T14:57:20.965Z,3.30
2022-10-12T14:59:49.278Z,2.92
2022-10-12T15:02:19.029Z,2.80
2022-10-12T15:04:49.774Z,3.03
2022-10-12T15:07:20.697Z,2.25
2022-10-12T15:09:49.585Z,2.35
2022-10-12T15:12:19.201Z,2.75
2022-10-12T15:14:47.733Z,3.10
2022-10-12T15:17:16.859Z,3.67
2022-10-12T15:19:45.717Z,3.00
2022-10-12T15:22:16.972Z,2.67
2022-10-12T15:24:45.377Z,2.97
2022-10-12T15:27:14.433Z,2.70
2022-10-12T15:29:42.997Z,1.75
2022-10-12T15:32:12.329Z,2.25
2022-10-12T15:34:40.863Z,2.40
2022-10-12T15:37:09.566Z,2.25
2022-10-12T15:39:39.335Z,2.55
2022-10-12T15:42:07.706Z,3.70
2022-10-12T15:44:40.479Z,2.58
2022-10-12T15:47:08.839Z,1.90
2022-10-12T15:49:37.130Z,1.98
2022-10-12T15:52:06.098Z,2.60
2022-10-12T15:54:34.971Z,2.85
2022-10-12T15:57:04.804Z,2.13
2022-10-12T15:59:33.716Z,2.00
2022-10-12T16:02:02.078Z,2.00
2022-10-12T16:04:30.661Z,1.92
2022-10-12T16:07:01.617Z,1.83
2022-10-12T16:09:30.476Z,2.42
2022-10-12T16:11:58.908Z,1.55
2022-10-12T16:14:28.606Z,1.95
2022-10-12T16:16:58.851Z,1.77
2022-10-12T16:19:27.233Z,2.42
2022-10-12T16:21:55.681Z,2.78
2022-10-12T16:24:24.536Z,2.20
2022-10-12T16:26:52.987Z,2.97
2022-10-12T16:29:21.314Z,2.70
2022-10-12T16:31:51.017Z,2.33
2022-10-12T16:34:19.319Z,2.13
2022-10-12T16:36:47.685Z,2.63
2022-10-12T16:39:15.963Z,2.63
2022-10-12T16:41:44.330Z,2.65
2022-10-12T16:44:12.587Z,2.85
2022-10-12T16:46:40.960Z,3.28
2022-10-12T16:49:10.757Z,2.05
2022-10-12T16:51:39.814Z,3.08
2022-10-12T16:54:08.495Z,2.45
2022-10-12T16:56:39.448Z,2.17
2022-10-12T16:59:08.449Z,2.53
2022-10-12T17:01:36.823Z,3.17
2022-10-12T17:04:05.174Z,3.40
2022-10-12T17:06:35.080Z,2.92
2022-10-12T17:09:03.377Z,2.75
2022-10-12T17:11:31.680Z,2.55
2022-10-12T17:14:00.001Z,2.92
2022-10-12T17:16:45.881Z,2.35
2022-10-12T17:19:15.194Z,2.60
2022-10-12T17:21:45.084Z,2.38
2022-10-12T17:24:14.286Z,2.08
2022-10-12T17:26:42.657Z,2.55
2022-10-12T17:29:11.808Z,3.15
2022-10-12T17:31:40.312Z,2.38
2022-10-12T17:34:08.779Z,2.75
2022-10-12T17:36:37.324Z,2.55
2022-10-12T17:39:07.177Z,2.78
2022-10-12T17:41:35.600Z,2.00
2022-10-12T17:44:03.972Z,2.83
2022-10-12T17:46:32.361Z,1.88
2022-10-12T17:49:00.676Z,1.63
2022-10-12T17:51:29.258Z,2.25
2022-10-12T17:53:57.758Z,2.38
2022-10-12T17:56:27.653Z,1.58
2022-10-12T17:58:56.541Z,2.35
2022-10-12T18:01:25.377Z,1.42
2022-10-12T18:03:55.382Z,1.85
2022-10-12T18:06:24.757Z,2.25
2022-10-12T18:08:53.606Z,2.80
2022-10-12T18:11:22.568Z,2.25
2022-10-12T18:13:53.159Z,3.05
2022-10-12T18:16:22.874Z,3.00
2022-10-12T18:18:52.706Z,2.30
2022-10-12T18:21:22.047Z,1.65
2022-10-12T18:23:50.648Z,2.50
2022-10-12T18:26:19.991Z,2.17
2022-10-12T18:28:48.920Z,2.25
2022-10-12T18:31:20.010Z,2.22
2022-10-12T18:33:48.419Z,1.90
2022-10-12T18:36:17.259Z,2.28
2022-10-12T18:38:45.884Z,2.67
2022-10-12T18:41:15.367Z,2.10
2022-10-12T18:43:43.812Z,1.95
2022-10-12T18:46:13.396Z,1.67
2022-10-12T18:48:43.224Z,1.95
2022-10-12T18:51:23.769Z,2.00
2022-10-12T18:53:52.465Z,1.63
2022-10-12T18:56:20.888Z,2.00
2022-10-12T18:58:49.485Z,2.20
2022-10-12T19:01:18.603Z,2.28
2022-10-12T19:03:48.706Z,1.60
2022-10-12T19:06:18.141Z,1.73
2022-10-12T19:08:48.002Z,1.77
2022-10-12T19:11:17.617Z,2.22
2022-10-12T19:13:46.380Z,1.88
2022-10-12T19:16:15.992Z,1.65
2022-10-12T19:18:44.531Z,1.55
2022-10-12T19:21:15.323Z,2.60
2022-10-12T19:23:44.120Z,1.88
2022-10-12T19:26:13.985Z,2.70
2022-10-12T19:28:42.439Z,2.20
2022-10-12T19:31:12.148Z,2.20
2022-10-12T19:33:41.293Z,2.67
2022-10-12T19:36:11.267Z,2.00
2022-10-12T19:38:41.760Z,1.48
2022-10-12T19:41:10.403Z,1.77
2022-10-12T19:43:39.202Z,2.47
2022-10-12T19:46:08.198Z,2.10
2022-10-12T19:48:37.032Z,1.73
2022-10-12T19:51:07.075Z,2.28
2022-10-12T19:53:35.501Z,1.42
2022-10-12T19:56:06.352Z,2.38
2022-10-12T19:58:34.696Z,2.08
2022-10-12T20:01:03.154Z,1.55
2022-10-12T20:03:31.609Z,2.15
2022-10-12T20:06:00.272Z,1.52
2022-10-12T20:08:28.739Z,1.63
2022-10-12T20:10:57.064Z,1.65
2022-10-12T20:13:26.704Z,1.90
2022-10-12T20:15:55.531Z,1.70
2022-10-12T20:18:23.847Z,1.40
2022-10-12T20:20:52.262Z,1.35
2022-10-12T20:23:20.768Z,2.00
2022-10-12T20:25:50.826Z,1.77
2022-10-12T20:28:19.974Z,1.27
2022-10-12T20:30:50.038Z,2.63
2022-10-12T20:33:18.436Z,1.77
2022-10-12T20:35:50.226Z,1.50
2022-10-12T20:38:19.123Z,1.98
2022-10-12T20:40:47.983Z,1.58
2022-10-12T20:43:16.472Z,1.67
2022-10-12T20:45:44.774Z,1.52
2022-10-12T20:48:14.465Z,2.47
2022-10-12T20:50:42.823Z,1.42
2022-10-12T20:53:11.108Z,1.85
2022-10-12T20:55:40.781Z,1.77
2022-10-12T20:58:09.811Z,1.83
2022-10-12T21:00:38.297Z,1.27
2022-10-12T21:03:06.672Z,1.83
2022-10-12T21:05:37.609Z,1.02
2022-10-12T21:08:05.893Z,2.08
2022-10-12T21:10:37.988Z,1.60
2022-10-12T21:13:08.313Z,1.40
2022-10-12T21:15:36.620Z,1.27
2022-10-12T21:18:04.929Z,1.27
2022-10-12T21:20:33.173Z,0.98
2022-10-12T21:23:02.852Z,1.20
2022-10-12T21:25:31.148Z,1.83
2022-10-12T21:27:59.467Z,1.63
2022-10-12T21:30:27.753Z,0.95
2022-10-12T21:32:56.053Z,1.25
2022-10-12T21:35:24.339Z,1.65
2022-10-12T21:37:52.626Z,1.50
2022-10-12T21:40:22.454Z,1.60
2022-10-12T21:42:50.718Z,1.23
2022-10-12T21:45:19.007Z,1.85
2022-10-12T21:47:48.030Z,1.70
2022-10-12T21:50:16.320Z,2.58
2022-10-12T21:52:48.440Z,1.38
2022-10-12T21:55:18.169Z,1.30
2022-10-12T21:57:47.945Z,0.90
2022-10-12T22:00:16.646Z,1.75
2022-10-12T22:02:45.001Z,2.53
2022-10-12T22:05:13.342Z,1.27
2022-10-12T22:07:42.821Z,1.40
2022-10-12T22:10:11.473Z,1.33
2022-10-12T22:12:39.831Z,1.85
2022-10-12T22:15:10.293Z,2.45
2022-10-12T22:17:38.676Z,1.83
2022-10-12T22:20:07.266Z,1.60
2022-10-12T22:22:35.581Z,1.83
2022-10-12T22:25:03.842Z,1.60
2022-10-12T22:27:32.130Z,1.98
2022-10-12T22:30:00.538Z,1.88
2022-10-12T22:32:30.130Z,1.27
2022-10-12T22:34:59.177Z,1.88
2022-10-12T22:37:27.470Z,1.20
2022-10-12T22:39:55.721Z,1.27
2022-10-12T22:42:24.061Z,1.67
2022-10-12T22:44:52.332Z,1.13
2022-10-12T22:47:20.618Z,1.48
2022-10-12T22:49:50.297Z,2.90
2022-10-12T22:52:18.707Z,1.73
2022-10-12T22:54:47.283Z,1.25
2022-10-12T22:57:15.562Z,2.30
2022-10-12T22:59:43.805Z,1.27
2022-10-12T23:02:12.055Z,1.77
2022-10-12T23:04:40.322Z,2.33
2022-10-12T23:07:09.937Z,1.55
2022-10-12T23:09:38.189Z,2.10
2022-10-12T23:12:06.750Z,1.42
2022-10-12T23:14:34.982Z,2.20
2022-10-12T23:17:03.448Z,1.65
2022-10-12T23:19:31.828Z,3.15
2022-10-12T23:22:00.116Z,1.40
2022-10-12T23:24:29.782Z,1.92
2022-10-12T23:26:58.078Z,1.65
2022-10-12T23:29:26.378Z,2.10
2022-10-12T23:31:54.618Z,1.40
2022-10-12T23:34:22.890Z,1.52
2022-10-12T23:36:51.196Z,1.45
2022-10-12T23:39:19.513Z,1.30
2022-10-12T23:41:49.190Z,1.25
2022-10-12T23:44:17.452Z,1.13
2022-10-12T23:46:45.856Z,1.92
2022-10-12T23:49:14.076Z,2.08
2022-10-12T23:51:42.493Z,1.50
2022-10-12T23:54:10.822Z,2.15
2022-10-12T23:56:39.145Z,1.35
2022-10-12T23:59:08.732Z,1.48
